This is the latest recevied weather packets stored in our database for station/object TA5KA. If no packets are shown the sender has not sent any weather packets the latest 1 day(s).
| Time | Temp. | Humidity | Pressure | Rain* | Wind** | Luminosity | Snow |
|---|---|---|---|---|---|---|---|
| 1778093605 | 8.89° C | 81% | 1018 hPa | 0 mm | - | - | - |
| 1778093086 | 8.89° C | 81% | 1018 hPa | 0 mm | - | - | - |
| 1778091883 | 10.56° C | 71% | 1018 hPa | 0 mm | - | - | - |
| 1778091801 | 10.56° C | 71% | 1018 hPa | 0 mm | - | - | - |
| 1778090680 | 11.11° C | 71% | 1018 hPa | 0 mm | - | - | - |
| 1778089477 | 11.11° C | 71% | 1018 hPa | 0 mm | - | - | - |
| 1778088876 | 12.22° C | 62% | 1017 hPa | 0 mm | - | - | - |
| 1778088274 | 12.78° C | 58% | 1017 hPa | 0 mm | - | - | - |
| 1778086989 | 13.33° C | 58% | 1017 hPa | 0 mm | - | - | - |
| 1778086470 | 13.33° C | 58% | 1017 hPa | 0 mm | - | - | - |
| 1778085786 | 13.33° C | 58% | 1017 hPa | 0 mm | - | - | - |
| 1778084064 | 14.44° C | 47% | 1017 hPa | 0 mm | - | - | - |
| 1778083981 | 14.44° C | 47% | 1017 hPa | 0 mm | - | - | - |
| 1778082778 | 14.44° C | 47% | 1017 hPa | 0 mm | - | - | - |
| 1778082260 | 13.89° C | 55% | 1017 hPa | 0 mm | - | - | - |
| 1778079772 | 15.56° C | 59% | 1017 hPa | 0 mm | - | - | - |
| 1778079253 | 15.56° C | 59% | 1017 hPa | 0 mm | - | - | - |
| 1778078569 | 15° C | 59% | 1017 hPa | 0 mm | - | - | - |
| 1778077449 | 12.78° C | 62% | 1017 hPa | 0 mm | - | - | - |
| 1778077366 | 12.78° C | 62% | 1017 hPa | 0 mm | - | - | - |
| 1778076848 | 14.44° C | 59% | 1017 hPa | 0 mm | - | - | - |
| 1778076246 | 13.89° C | 59% | 1017 hPa | 0 mm | - | - | - |
| 1778076163 | 13.89° C | 59% | 1017 hPa | 0 mm | - | - | - |
| 1778075562 | 13.89° C | 59% | 1017 hPa | 0 mm | - | - | - |
| 1778074960 | 14.44° C | 59% | 1017 hPa | 0 mm | - | - | - |
* Rain latest hour (hover to see other rain measurements)
** Current wind speed in m/s (hover to see current wind gust speed)